Terminal Aerodrome Forecast
Issued by NWS

Home | Current Version | Previous Version | Text Only | Print | Product List | Glossary On
Versions: 1 2 3 4 5 6 7 8 9 10 11 12 13 14 15 16
714
FTUS46 KLOX 271748
TAFBUR
TAF
KBUR 271748Z 2718/2818 13004KT 5SM HZ OVC020
     FM271830 18006KT P6SM SCT020
     FM272100 18010KT P6SM SCT120
     FM280300 16005KT P6SM SKC
     FM281000 VRB03KT 3SM BR OVC005=

USA.gov is the U.S. government's official web portal to all federal, state and local government web resources and services.